sensor_id;sensor_type;location;lat;lon;timestamp;pressure;altitude;pressure_sealevel;temperature
41940;BMP180;23057;48.554;14.454;2023-12-07T00:02:07;93621.00;;;7.00
41940;BMP180;23057;48.554;14.454;2023-12-07T00:04:38;93619.00;;;7.00
41940;BMP180;23057;48.554;14.454;2023-12-07T00:07:08;93623.00;;;7.00
41940;BMP180;23057;48.554;14.454;2023-12-07T00:09:39;93623.00;;;7.00
41940;BMP180;23057;48.554;14.454;2023-12-07T00:12:10;93622.00;;;7.00
41940;BMP180;23057;48.554;14.454;2023-12-07T00:14:41;93629.00;;;7.00
41940;BMP180;23057;48.554;14.454;2023-12-07T00:17:12;93626.00;;;7.00
41940;BMP180;23057;48.554;14.454;2023-12-07T00:19:43;93630.00;;;7.00
41940;BMP180;23057;48.554;14.454;2023-12-07T00:22:13;93636.00;;;7.00
41940;BMP180;23057;48.554;14.454;2023-12-07T00:24:45;93637.00;;;7.00
41940;BMP180;23057;48.554;14.454;2023-12-07T00:27:15;93635.00;;;7.00
41940;BMP180;23057;48.554;14.454;2023-12-07T00:29:46;93647.00;;;7.00
41940;BMP180;23057;48.554;14.454;2023-12-07T00:32:17;93641.00;;;7.00
41940;BMP180;23057;48.554;14.454;2023-12-07T00:34:48;93633.00;;;6.90
41940;BMP180;23057;48.554;14.454;2023-12-07T00:37:19;93640.00;;;6.90
41940;BMP180;23057;48.554;14.454;2023-12-07T00:39:50;93639.00;;;6.90
41940;BMP180;23057;48.554;14.454;2023-12-07T00:42:21;93644.00;;;6.90
41940;BMP180;23057;48.554;14.454;2023-12-07T00:44:52;93647.00;;;6.90
41940;BMP180;23057;48.554;14.454;2023-12-07T00:47:23;93649.00;;;6.80
41940;BMP180;23057;48.554;14.454;2023-12-07T00:49:53;93648.00;;;6.90
41940;BMP180;23057;48.554;14.454;2023-12-07T00:52:24;93645.00;;;6.90
41940;BMP180;23057;48.554;14.454;2023-12-07T00:54:55;93649.00;;;6.90
41940;BMP180;23057;48.554;14.454;2023-12-07T00:57:26;93655.00;;;6.90
41940;BMP180;23057;48.554;14.454;2023-12-07T00:59:57;93659.00;;;6.90
41940;BMP180;23057;48.554;14.454;2023-12-07T01:02:28;93658.00;;;6.90
41940;BMP180;23057;48.554;14.454;2023-12-07T01:04:59;93667.00;;;6.90
41940;BMP180;23057;48.554;14.454;2023-12-07T01:07:30;93671.00;;;6.90
41940;BMP180;23057;48.554;14.454;2023-12-07T01:10:00;93666.00;;;6.90
41940;BMP180;23057;48.554;14.454;2023-12-07T01:12:31;93674.00;;;6.90
41940;BMP180;23057;48.554;14.454;2023-12-07T01:15:03;93670.00;;;7.00
41940;BMP180;23057;48.554;14.454;2023-12-07T01:17:34;93672.00;;;7.00
41940;BMP180;23057;48.554;14.454;2023-12-07T01:20:06;93672.00;;;7.00
41940;BMP180;23057;48.554;14.454;2023-12-07T01:22:43;93673.00;;;7.00
41940;BMP180;23057;48.554;14.454;2023-12-07T01:25:16;93670.00;;;7.00
41940;BMP180;23057;48.554;14.454;2023-12-07T01:27:51;93675.00;;;7.00
41940;BMP180;23057;48.554;14.454;2023-12-07T01:30:22;93672.00;;;7.00
41940;BMP180;23057;48.554;14.454;2023-12-07T01:32:53;93675.00;;;7.10
41940;BMP180;23057;48.554;14.454;2023-12-07T01:35:24;93686.00;;;7.10
41940;BMP180;23057;48.554;14.454;2023-12-07T01:37:55;93677.00;;;7.10
41940;BMP180;23057;48.554;14.454;2023-12-07T01:40:26;93675.00;;;7.10
41940;BMP180;23057;48.554;14.454;2023-12-07T01:42:56;93686.00;;;7.10
41940;BMP180;23057;48.554;14.454;2023-12-07T01:45:27;93684.00;;;7.10
41940;BMP180;23057;48.554;14.454;2023-12-07T01:47:58;93683.00;;;7.10
41940;BMP180;23057;48.554;14.454;2023-12-07T01:50:30;93674.00;;;7.10
41940;BMP180;23057;48.554;14.454;2023-12-07T01:53:03;93681.00;;;7.00
41940;BMP180;23057;48.554;14.454;2023-12-07T01:55:35;93680.00;;;7.10
41940;BMP180;23057;48.554;14.454;2023-12-07T01:58:07;93684.00;;;7.10
41940;BMP180;23057;48.554;14.454;2023-12-07T02:00:38;93681.00;;;7.20
41940;BMP180;23057;48.554;14.454;2023-12-07T02:03:09;93678.00;;;7.20
41940;BMP180;23057;48.554;14.454;2023-12-07T02:05:47;93680.00;;;7.30
41940;BMP180;23057;48.554;14.454;2023-12-07T02:08:21;93681.00;;;7.30
41940;BMP180;23057;48.554;14.454;2023-12-07T02:10:52;93675.00;;;7.40
41940;BMP180;23057;48.554;14.454;2023-12-07T02:13:23;93683.00;;;7.40
41940;BMP180;23057;48.554;14.454;2023-12-07T02:15:57;93688.00;;;7.40
41940;BMP180;23057;48.554;14.454;2023-12-07T02:18:46;93681.00;;;7.50
41940;BMP180;23057;48.554;14.454;2023-12-07T02:21:34;93692.00;;;7.50
41940;BMP180;23057;48.554;14.454;2023-12-07T02:24:18;93698.00;;;7.60
41940;BMP180;23057;48.554;14.454;2023-12-07T02:26:52;93687.00;;;7.60
41940;BMP180;23057;48.554;14.454;2023-12-07T02:29:23;93694.00;;;7.60
41940;BMP180;23057;48.554;14.454;2023-12-07T02:31:54;93689.00;;;7.70
41940;BMP180;23057;48.554;14.454;2023-12-07T02:34:25;93698.00;;;7.70
41940;BMP180;23057;48.554;14.454;2023-12-07T02:36:58;93698.00;;;7.60
41940;BMP180;23057;48.554;14.454;2023-12-07T02:39:31;93703.00;;;7.60
41940;BMP180;23057;48.554;14.454;2023-12-07T02:42:03;93700.00;;;7.60
41940;BMP180;23057;48.554;14.454;2023-12-07T02:44:36;93701.00;;;7.50
41940;BMP180;23057;48.554;14.454;2023-12-07T02:47:08;93708.00;;;7.50
41940;BMP180;23057;48.554;14.454;2023-12-07T02:49:39;93710.00;;;7.50
41940;BMP180;23057;48.554;14.454;2023-12-07T02:52:10;93704.00;;;7.50
41940;BMP180;23057;48.554;14.454;2023-12-07T02:54:41;93708.00;;;7.50
41940;BMP180;23057;48.554;14.454;2023-12-07T02:57:12;93718.00;;;7.50
41940;BMP180;23057;48.554;14.454;2023-12-07T02:59:45;93717.00;;;7.50
41940;BMP180;23057;48.554;14.454;2023-12-07T03:02:16;93712.00;;;7.50
41940;BMP180;23057;48.554;14.454;2023-12-07T03:04:46;93716.00;;;7.50
41940;BMP180;23057;48.554;14.454;2023-12-07T03:07:17;93711.00;;;7.50
41940;BMP180;23057;48.554;14.454;2023-12-07T03:09:48;93723.00;;;7.50
41940;BMP180;23057;48.554;14.454;2023-12-07T03:12:19;93731.00;;;7.60
41940;BMP180;23057;48.554;14.454;2023-12-07T03:14:50;93732.00;;;7.70
41940;BMP180;23057;48.554;14.454;2023-12-07T03:17:21;93733.00;;;7.70
41940;BMP180;23057;48.554;14.454;2023-12-07T03:19:51;93723.00;;;7.70
41940;BMP180;23057;48.554;14.454;2023-12-07T03:22:22;93727.00;;;7.70
41940;BMP180;23057;48.554;14.454;2023-12-07T03:24:53;93735.00;;;7.70
41940;BMP180;23057;48.554;14.454;2023-12-07T03:27:24;93732.00;;;7.60
41940;BMP180;23057;48.554;14.454;2023-12-07T03:29:55;93736.00;;;7.60
41940;BMP180;23057;48.554;14.454;2023-12-07T03:32:25;93734.00;;;7.70
41940;BMP180;23057;48.554;14.454;2023-12-07T03:34:56;93738.00;;;7.70
41940;BMP180;23057;48.554;14.454;2023-12-07T03:37:27;93740.00;;;7.60
41940;BMP180;23057;48.554;14.454;2023-12-07T03:39:58;93748.00;;;7.60
41940;BMP180;23057;48.554;14.454;2023-12-07T03:42:29;93752.00;;;7.50
41940;BMP180;23057;48.554;14.454;2023-12-07T03:44:59;93760.00;;;7.50
41940;BMP180;23057;48.554;14.454;2023-12-07T03:47:30;93762.00;;;7.40
41940;BMP180;23057;48.554;14.454;2023-12-07T03:50:01;93758.00;;;7.40
41940;BMP180;23057;48.554;14.454;2023-12-07T03:52:32;93762.00;;;7.30
41940;BMP180;23057;48.554;14.454;2023-12-07T03:55:03;93770.00;;;7.20
41940;BMP180;23057;48.554;14.454;2023-12-07T03:57:34;93776.00;;;7.10
41940;BMP180;23057;48.554;14.454;2023-12-07T04:00:06;93768.00;;;7.00
41940;BMP180;23057;48.554;14.454;2023-12-07T04:02:38;93776.00;;;6.90
41940;BMP180;23057;48.554;14.454;2023-12-07T04:05:09;93764.00;;;6.90
41940;BMP180;23057;48.554;14.454;2023-12-07T04:07:40;93775.00;;;6.80
41940;BMP180;23057;48.554;14.454;2023-12-07T04:10:12;93773.00;;;6.70
41940;BMP180;23057;48.554;14.454;2023-12-07T04:12:42;93784.00;;;6.70
41940;BMP180;23057;48.554;14.454;2023-12-07T04:15:13;93777.00;;;6.60
41940;BMP180;23057;48.554;14.454;2023-12-07T04:17:44;93780.00;;;6.60
41940;BMP180;23057;48.554;14.454;2023-12-07T04:20:15;93778.00;;;6.50
41940;BMP180;23057;48.554;14.454;2023-12-07T04:22:46;93776.00;;;6.50
41940;BMP180;23057;48.554;14.454;2023-12-07T04:25:16;93780.00;;;6.50
41940;BMP180;23057;48.554;14.454;2023-12-07T04:27:47;93766.00;;;6.50
41940;BMP180;23057;48.554;14.454;2023-12-07T04:30:18;93775.00;;;6.50
41940;BMP180;23057;48.554;14.454;2023-12-07T04:32:49;93776.00;;;6.40
41940;BMP180;23057;48.554;14.454;2023-12-07T04:35:20;93771.00;;;6.40
41940;BMP180;23057;48.554;14.454;2023-12-07T04:37:50;93776.00;;;6.40
41940;BMP180;23057;48.554;14.454;2023-12-07T04:40:21;93788.00;;;6.40
41940;BMP180;23057;48.554;14.454;2023-12-07T04:42:52;93777.00;;;6.40
41940;BMP180;23057;48.554;14.454;2023-12-07T04:45:23;93790.00;;;6.40
41940;BMP180;23057;48.554;14.454;2023-12-07T04:47:54;93793.00;;;6.40
41940;BMP180;23057;48.554;14.454;2023-12-07T04:50:27;93774.00;;;6.30
41940;BMP180;23057;48.554;14.454;2023-12-07T04:52:58;93776.00;;;6.40
41940;BMP180;23057;48.554;14.454;2023-12-07T04:55:29;93771.00;;;6.40
41940;BMP180;23057;48.554;14.454;2023-12-07T04:58:00;93786.00;;;6.40
41940;BMP180;23057;48.554;14.454;2023-12-07T05:00:31;93799.00;;;6.40
41940;BMP180;23057;48.554;14.454;2023-12-07T05:03:01;93797.00;;;6.40
41940;BMP180;23057;48.554;14.454;2023-12-07T05:05:33;93799.00;;;6.30
41940;BMP180;23057;48.554;14.454;2023-12-07T05:08:04;93800.00;;;6.30
41940;BMP180;23057;48.554;14.454;2023-12-07T05:10:34;93798.00;;;6.40
41940;BMP180;23057;48.554;14.454;2023-12-07T05:13:05;93806.00;;;6.40
41940;BMP180;23057;48.554;14.454;2023-12-07T05:15:36;93801.00;;;6.40
41940;BMP180;23057;48.554;14.454;2023-12-07T05:18:07;93814.00;;;6.50
41940;BMP180;23057;48.554;14.454;2023-12-07T05:20:38;93812.00;;;6.50
41940;BMP180;23057;48.554;14.454;2023-12-07T05:23:09;93814.00;;;6.50
41940;BMP180;23057;48.554;14.454;2023-12-07T05:25:40;93816.00;;;6.50
41940;BMP180;23057;48.554;14.454;2023-12-07T05:28:11;93815.00;;;6.50
41940;BMP180;23057;48.554;14.454;2023-12-07T05:30:42;93823.00;;;6.50
41940;BMP180;23057;48.554;14.454;2023-12-07T05:33:13;93827.00;;;6.50
41940;BMP180;23057;48.554;14.454;2023-12-07T05:35:44;93822.00;;;6.50
41940;BMP180;23057;48.554;14.454;2023-12-07T05:38:15;93837.00;;;6.50
41940;BMP180;23057;48.554;14.454;2023-12-07T05:40:45;93829.00;;;6.50
41940;BMP180;23057;48.554;14.454;2023-12-07T05:43:16;93838.00;;;6.50
41940;BMP180;23057;48.554;14.454;2023-12-07T05:45:47;93842.00;;;6.50
41940;BMP180;23057;48.554;14.454;2023-12-07T05:48:18;93844.00;;;6.60
41940;BMP180;23057;48.554;14.454;2023-12-07T05:50:48;93845.00;;;6.60
41940;BMP180;23057;48.554;14.454;2023-12-07T05:53:20;93836.00;;;6.60
41940;BMP180;23057;48.554;14.454;2023-12-07T05:55:50;93849.00;;;6.60
41940;BMP180;23057;48.554;14.454;2023-12-07T05:58:21;93834.00;;;6.60
41940;BMP180;23057;48.554;14.454;2023-12-07T06:00:52;93837.00;;;6.60
41940;BMP180;23057;48.554;14.454;2023-12-07T06:03:23;93840.00;;;6.60
41940;BMP180;23057;48.554;14.454;2023-12-07T06:05:54;93848.00;;;6.60
41940;BMP180;23057;48.554;14.454;2023-12-07T06:08:26;93855.00;;;6.60
41940;BMP180;23057;48.554;14.454;2023-12-07T06:10:57;93863.00;;;6.60
41940;BMP180;23057;48.554;14.454;2023-12-07T06:13:28;93861.00;;;6.70
41940;BMP180;23057;48.554;14.454;2023-12-07T06:15:59;93866.00;;;6.70
41940;BMP180;23057;48.554;14.454;2023-12-07T06:18:31;93856.00;;;6.70
41940;BMP180;23057;48.554;14.454;2023-12-07T06:21:02;93866.00;;;6.80
41940;BMP180;23057;48.554;14.454;2023-12-07T06:23:33;93853.00;;;6.70
41940;BMP180;23057;48.554;14.454;2023-12-07T06:26:04;93854.00;;;6.70
41940;BMP180;23057;48.554;14.454;2023-12-07T06:28:36;93861.00;;;6.70
41940;BMP180;23057;48.554;14.454;2023-12-07T06:31:08;93855.00;;;6.70
41940;BMP180;23057;48.554;14.454;2023-12-07T06:33:40;93864.00;;;6.70
41940;BMP180;23057;48.554;14.454;2023-12-07T06:36:18;93864.00;;;6.70
41940;BMP180;23057;48.554;14.454;2023-12-07T06:38:50;93865.00;;;6.70
41940;BMP180;23057;48.554;14.454;2023-12-07T06:41:20;93868.00;;;6.70
41940;BMP180;23057;48.554;14.454;2023-12-07T06:43:51;93870.00;;;6.80
41940;BMP180;23057;48.554;14.454;2023-12-07T06:46:22;93874.00;;;6.80
41940;BMP180;23057;48.554;14.454;2023-12-07T06:48:53;93876.00;;;6.80
41940;BMP180;23057;48.554;14.454;2023-12-07T06:51:24;93881.00;;;6.80
41940;BMP180;23057;48.554;14.454;2023-12-07T06:53:55;93876.00;;;6.80
41940;BMP180;23057;48.554;14.454;2023-12-07T06:56:26;93884.00;;;6.80
41940;BMP180;23057;48.554;14.454;2023-12-07T06:58:57;93874.00;;;6.80
41940;BMP180;23057;48.554;14.454;2023-12-07T07:01:27;93879.00;;;6.90
41940;BMP180;23057;48.554;14.454;2023-12-07T07:03:58;93884.00;;;6.90
41940;BMP180;23057;48.554;14.454;2023-12-07T07:06:29;93881.00;;;6.90
41940;BMP180;23057;48.554;14.454;2023-12-07T07:09:00;93888.00;;;7.00
41940;BMP180;23057;48.554;14.454;2023-12-07T07:11:31;93876.00;;;7.10
41940;BMP180;23057;48.554;14.454;2023-12-07T07:14:01;93884.00;;;7.10
41940;BMP180;23057;48.554;14.454;2023-12-07T07:16:32;93887.00;;;7.20
41940;BMP180;23057;48.554;14.454;2023-12-07T07:19:03;93891.00;;;7.30
41940;BMP180;23057;48.554;14.454;2023-12-07T07:21:34;93898.00;;;7.40
41940;BMP180;23057;48.554;14.454;2023-12-07T07:24:05;93902.00;;;7.40
41940;BMP180;23057;48.554;14.454;2023-12-07T07:26:37;93898.00;;;7.50
41940;BMP180;23057;48.554;14.454;2023-12-07T07:29:07;93901.00;;;7.50
41940;BMP180;23057;48.554;14.454;2023-12-07T07:31:38;93907.00;;;7.60
41940;BMP180;23057;48.554;14.454;2023-12-07T07:34:10;93902.00;;;7.60
41940;BMP180;23057;48.554;14.454;2023-12-07T07:36:40;93904.00;;;7.60
41940;BMP180;23057;48.554;14.454;2023-12-07T07:39:12;93900.00;;;7.60
41940;BMP180;23057;48.554;14.454;2023-12-07T07:41:44;93902.00;;;7.70
41940;BMP180;23057;48.554;14.454;2023-12-07T07:44:15;93907.00;;;7.70
41940;BMP180;23057;48.554;14.454;2023-12-07T07:46:45;93893.00;;;7.70
41940;BMP180;23057;48.554;14.454;2023-12-07T07:49:16;93891.00;;;7.70
41940;BMP180;23057;48.554;14.454;2023-12-07T07:51:47;93897.00;;;7.70
41940;BMP180;23057;48.554;14.454;2023-12-07T07:54:18;93904.00;;;7.70
41940;BMP180;23057;48.554;14.454;2023-12-07T07:56:49;93892.00;;;7.70
41940;BMP180;23057;48.554;14.454;2023-12-07T07:59:19;93900.00;;;7.70
41940;BMP180;23057;48.554;14.454;2023-12-07T08:01:50;93898.00;;;7.70
41940;BMP180;23057;48.554;14.454;2023-12-07T08:04:21;93894.00;;;7.70
41940;BMP180;23057;48.554;14.454;2023-12-07T08:06:52;93892.00;;;7.70
41940;BMP180;23057;48.554;14.454;2023-12-07T08:09:22;93899.00;;;7.70
41940;BMP180;23057;48.554;14.454;2023-12-07T08:11:53;93891.00;;;7.70
41940;BMP180;23057;48.554;14.454;2023-12-07T08:14:24;93901.00;;;7.80
41940;BMP180;23057;48.554;14.454;2023-12-07T08:16:55;93910.00;;;7.80
41940;BMP180;23057;48.554;14.454;2023-12-07T08:19:26;93908.00;;;7.80
41940;BMP180;23057;48.554;14.454;2023-12-07T08:21:57;93912.00;;;7.80
41940;BMP180;23057;48.554;14.454;2023-12-07T08:24:27;93902.00;;;7.80
41940;BMP180;23057;48.554;14.454;2023-12-07T08:26:58;93911.00;;;7.80
41940;BMP180;23057;48.554;14.454;2023-12-07T08:29:29;93916.00;;;7.80
41940;BMP180;23057;48.554;14.454;2023-12-07T08:32:00;93911.00;;;7.80
41940;BMP180;23057;48.554;14.454;2023-12-07T08:34:31;93908.00;;;7.80
41940;BMP180;23057;48.554;14.454;2023-12-07T08:37:02;93903.00;;;7.80
41940;BMP180;23057;48.554;14.454;2023-12-07T08:39:33;93914.00;;;7.80
41940;BMP180;23057;48.554;14.454;2023-12-07T08:42:04;93902.00;;;7.80
41940;BMP180;23057;48.554;14.454;2023-12-07T08:44:35;93920.00;;;7.90
41940;BMP180;23057;48.554;14.454;2023-12-07T08:47:06;93928.00;;;7.90
41940;BMP180;23057;48.554;14.454;2023-12-07T08:49:37;93919.00;;;7.90
41940;BMP180;23057;48.554;14.454;2023-12-07T08:52:08;93914.00;;;7.90
41940;BMP180;23057;48.554;14.454;2023-12-07T08:54:39;93921.00;;;8.00
41940;BMP180;23057;48.554;14.454;2023-12-07T08:57:09;93929.00;;;8.00
41940;BMP180;23057;48.554;14.454;2023-12-07T08:59:40;93930.00;;;8.00
41940;BMP180;23057;48.554;14.454;2023-12-07T09:02:11;93929.00;;;8.10
41940;BMP180;23057;48.554;14.454;2023-12-07T09:04:42;93932.00;;;8.10
41940;BMP180;23057;48.554;14.454;2023-12-07T09:07:13;93935.00;;;8.10
41940;BMP180;23057;48.554;14.454;2023-12-07T09:09:46;93938.00;;;8.10
41940;BMP180;23057;48.554;14.454;2023-12-07T09:12:18;93934.00;;;8.20
41940;BMP180;23057;48.554;14.454;2023-12-07T09:14:49;93938.00;;;8.20
41940;BMP180;23057;48.554;14.454;2023-12-07T09:17:19;93934.00;;;8.20
41940;BMP180;23057;48.554;14.454;2023-12-07T09:19:50;93935.00;;;8.20
41940;BMP180;23057;48.554;14.454;2023-12-07T09:22:21;93938.00;;;8.20
41940;BMP180;23057;48.554;14.454;2023-12-07T09:24:52;93943.00;;;8.30
41940;BMP180;23057;48.554;14.454;2023-12-07T09:27:23;93939.00;;;8.30
41940;BMP180;23057;48.554;14.454;2023-12-07T09:29:53;93936.00;;;8.40
41940;BMP180;23057;48.554;14.454;2023-12-07T09:32:24;93942.00;;;8.40
41940;BMP180;23057;48.554;14.454;2023-12-07T09:34:55;93941.00;;;8.40
41940;BMP180;23057;48.554;14.454;2023-12-07T09:37:26;93946.00;;;8.40
41940;BMP180;23057;48.554;14.454;2023-12-07T09:39:57;93935.00;;;8.40
41940;BMP180;23057;48.554;14.454;2023-12-07T09:42:27;93945.00;;;8.30
41940;BMP180;23057;48.554;14.454;2023-12-07T09:44:59;93935.00;;;8.30
41940;BMP180;23057;48.554;14.454;2023-12-07T09:47:31;93936.00;;;8.30
41940;BMP180;23057;48.554;14.454;2023-12-07T09:50:07;93928.00;;;8.20
41940;BMP180;23057;48.554;14.454;2023-12-07T09:52:39;93924.00;;;8.20
41940;BMP180;23057;48.554;14.454;2023-12-07T09:55:11;93928.00;;;8.20
41940;BMP180;23057;48.554;14.454;2023-12-07T09:57:42;93925.00;;;8.20
41940;BMP180;23057;48.554;14.454;2023-12-07T10:00:13;93926.00;;;8.20
41940;BMP180;23057;48.554;14.454;2023-12-07T10:02:46;93919.00;;;8.20
41940;BMP180;23057;48.554;14.454;2023-12-07T10:05:17;93925.00;;;8.30
41940;BMP180;23057;48.554;14.454;2023-12-07T10:07:50;93929.00;;;8.30
41940;BMP180;23057;48.554;14.454;2023-12-07T10:10:21;93920.00;;;8.30
41940;BMP180;23057;48.554;14.454;2023-12-07T10:12:58;93916.00;;;8.30
41940;BMP180;23057;48.554;14.454;2023-12-07T10:15:30;93915.00;;;8.30
41940;BMP180;23057;48.554;14.454;2023-12-07T10:18:01;93912.00;;;8.40
41940;BMP180;23057;48.554;14.454;2023-12-07T10:20:32;93920.00;;;8.40
41940;BMP180;23057;48.554;14.454;2023-12-07T10:23:05;93912.00;;;8.50
41940;BMP180;23057;48.554;14.454;2023-12-07T10:25:41;93914.00;;;8.60
41940;BMP180;23057;48.554;14.454;2023-12-07T10:28:12;93906.00;;;8.60
41940;BMP180;23057;48.554;14.454;2023-12-07T10:30:44;93911.00;;;8.60
41940;BMP180;23057;48.554;14.454;2023-12-07T10:33:15;93908.00;;;8.60
41940;BMP180;23057;48.554;14.454;2023-12-07T10:35:47;93906.00;;;8.60
41940;BMP180;23057;48.554;14.454;2023-12-07T10:38:20;93896.00;;;8.70
41940;BMP180;23057;48.554;14.454;2023-12-07T10:41:05;93905.00;;;8.70
41940;BMP180;23057;48.554;14.454;2023-12-07T10:43:42;93904.00;;;8.70
41940;BMP180;23057;48.554;14.454;2023-12-07T10:46:15;93894.00;;;8.70
41940;BMP180;23057;48.554;14.454;2023-12-07T10:48:54;93903.00;;;8.80
41940;BMP180;23057;48.554;14.454;2023-12-07T10:51:51;93892.00;;;8.80
41940;BMP180;23057;48.554;14.454;2023-12-07T10:55:01;93897.00;;;8.80
41940;BMP180;23057;48.554;14.454;2023-12-07T10:57:36;93897.00;;;8.80
41940;BMP180;23057;48.554;14.454;2023-12-07T11:00:08;93899.00;;;8.80
41940;BMP180;23057;48.554;14.454;2023-12-07T11:02:40;93885.00;;;8.80
41940;BMP180;23057;48.554;14.454;2023-12-07T11:05:14;93893.00;;;8.90
41940;BMP180;23057;48.554;14.454;2023-12-07T11:07:56;93891.00;;;9.00
41940;BMP180;23057;48.554;14.454;2023-12-07T11:11:00;93898.00;;;9.00
41940;BMP180;23057;48.554;14.454;2023-12-07T11:13:37;93895.00;;;9.10
41940;BMP180;23057;48.554;14.454;2023-12-07T11:16:10;93890.00;;;9.10
41940;BMP180;23057;48.554;14.454;2023-12-07T11:18:40;93890.00;;;9.20
41940;BMP180;23057;48.554;14.454;2023-12-07T11:21:11;93879.00;;;9.30
41940;BMP180;23057;48.554;14.454;2023-12-07T11:23:42;93880.00;;;9.30
41940;BMP180;23057;48.554;14.454;2023-12-07T11:26:13;93882.00;;;9.30
41940;BMP180;23057;48.554;14.454;2023-12-07T11:28:44;93880.00;;;9.40
41940;BMP180;23057;48.554;14.454;2023-12-07T11:31:16;93879.00;;;9.30
41940;BMP180;23057;48.554;14.454;2023-12-07T11:33:47;93879.00;;;9.40
41940;BMP180;23057;48.554;14.454;2023-12-07T11:36:18;93888.00;;;9.40
41940;BMP180;23057;48.554;14.454;2023-12-07T11:41:35;93881.00;;;9.40
41940;BMP180;23057;48.554;14.454;2023-12-07T11:44:13;93878.00;;;9.40
41940;BMP180;23057;48.554;14.454;2023-12-07T11:46:44;93877.00;;;9.40
41940;BMP180;23057;48.554;14.454;2023-12-07T11:49:15;93883.00;;;9.40
41940;BMP180;23057;48.554;14.454;2023-12-07T11:51:46;93878.00;;;9.40
41940;BMP180;23057;48.554;14.454;2023-12-07T11:54:17;93883.00;;;9.40
41940;BMP180;23057;48.554;14.454;2023-12-07T11:56:53;93873.00;;;9.40
41940;BMP180;23057;48.554;14.454;2023-12-07T11:59:25;93875.00;;;9.40
41940;BMP180;23057;48.554;14.454;2023-12-07T12:01:59;93872.00;;;9.40
41940;BMP180;23057;48.554;14.454;2023-12-07T12:04:32;93883.00;;;9.40
41940;BMP180;23057;48.554;14.454;2023-12-07T12:07:04;93882.00;;;9.40
41940;BMP180;23057;48.554;14.454;2023-12-07T12:09:35;93873.00;;;9.40
41940;BMP180;23057;48.554;14.454;2023-12-07T12:12:06;93871.00;;;9.40
41940;BMP180;23057;48.554;14.454;2023-12-07T12:14:37;93871.00;;;9.50
41940;BMP180;23057;48.554;14.454;2023-12-07T12:17:08;93871.00;;;9.50
41940;BMP180;23057;48.554;14.454;2023-12-07T12:19:39;93873.00;;;9.50
41940;BMP180;23057;48.554;14.454;2023-12-07T12:22:09;93873.00;;;9.70
41940;BMP180;23057;48.554;14.454;2023-12-07T12:24:41;93876.00;;;9.80
41940;BMP180;23057;48.554;14.454;2023-12-07T12:27:14;93879.00;;;9.80
41940;BMP180;23057;48.554;14.454;2023-12-07T12:29:47;93869.00;;;9.90
41940;BMP180;23057;48.554;14.454;2023-12-07T12:32:19;93862.00;;;9.90
41940;BMP180;23057;48.554;14.454;2023-12-07T12:34:53;93861.00;;;10.00
41940;BMP180;23057;48.554;14.454;2023-12-07T12:37:24;93855.00;;;10.00
41940;BMP180;23057;48.554;14.454;2023-12-07T12:39:55;93870.00;;;10.00
41940;BMP180;23057;48.554;14.454;2023-12-07T12:42:27;93861.00;;;10.00
41940;BMP180;23057;48.554;14.454;2023-12-07T12:44:58;93867.00;;;10.10
41940;BMP180;23057;48.554;14.454;2023-12-07T12:47:29;93866.00;;;10.10
41940;BMP180;23057;48.554;14.454;2023-12-07T12:50:00;93865.00;;;10.10
41940;BMP180;23057;48.554;14.454;2023-12-07T12:52:31;93865.00;;;10.20
41940;BMP180;23057;48.554;14.454;2023-12-07T12:55:07;93863.00;;;10.20
41940;BMP180;23057;48.554;14.454;2023-12-07T12:57:39;93868.00;;;10.30
41940;BMP180;23057;48.554;14.454;2023-12-07T13:00:13;93865.00;;;10.30
41940;BMP180;23057;48.554;14.454;2023-12-07T13:02:44;93863.00;;;10.20
41940;BMP180;23057;48.554;14.454;2023-12-07T13:05:14;93863.00;;;10.20
41940;BMP180;23057;48.554;14.454;2023-12-07T13:07:45;93856.00;;;10.20
41940;BMP180;23057;48.554;14.454;2023-12-07T13:10:18;93861.00;;;10.10
41940;BMP180;23057;48.554;14.454;2023-12-07T13:12:49;93865.00;;;10.00
41940;BMP180;23057;48.554;14.454;2023-12-07T13:15:20;93864.00;;;9.90
41940;BMP180;23057;48.554;14.454;2023-12-07T13:17:51;93862.00;;;9.90
41940;BMP180;23057;48.554;14.454;2023-12-07T13:20:22;93866.00;;;9.80
41940;BMP180;23057;48.554;14.454;2023-12-07T13:22:53;93872.00;;;9.60
41940;BMP180;23057;48.554;14.454;2023-12-07T13:25:25;93873.00;;;9.50
41940;BMP180;23057;48.554;14.454;2023-12-07T13:27:56;93872.00;;;9.40
41940;BMP180;23057;48.554;14.454;2023-12-07T13:30:28;93868.00;;;9.30
41940;BMP180;23057;48.554;14.454;2023-12-07T13:33:00;93867.00;;;9.20
41940;BMP180;23057;48.554;14.454;2023-12-07T13:35:30;93858.00;;;9.20
41940;BMP180;23057;48.554;14.454;2023-12-07T13:38:03;93864.00;;;9.10
41940;BMP180;23057;48.554;14.454;2023-12-07T13:40:35;93879.00;;;9.00
41940;BMP180;23057;48.554;14.454;2023-12-07T13:43:07;93870.00;;;8.90
41940;BMP180;23057;48.554;14.454;2023-12-07T13:45:39;93866.00;;;8.90
41940;BMP180;23057;48.554;14.454;2023-12-07T13:48:10;93875.00;;;8.80
41940;BMP180;23057;48.554;14.454;2023-12-07T13:50:43;93871.00;;;8.80
41940;BMP180;23057;48.554;14.454;2023-12-07T13:53:14;93867.00;;;8.80
41940;BMP180;23057;48.554;14.454;2023-12-07T13:55:45;93863.00;;;8.80
41940;BMP180;23057;48.554;14.454;2023-12-07T13:58:17;93856.00;;;8.70
41940;BMP180;23057;48.554;14.454;2023-12-07T14:00:48;93854.00;;;8.70
41940;BMP180;23057;48.554;14.454;2023-12-07T14:03:19;93856.00;;;8.70
41940;BMP180;23057;48.554;14.454;2023-12-07T14:05:50;93852.00;;;8.60
41940;BMP180;23057;48.554;14.454;2023-12-07T14:08:20;93855.00;;;8.60
41940;BMP180;23057;48.554;14.454;2023-12-07T14:10:51;93861.00;;;8.60
41940;BMP180;23057;48.554;14.454;2023-12-07T14:13:22;93859.00;;;8.60
41940;BMP180;23057;48.554;14.454;2023-12-07T14:15:55;93867.00;;;8.60
41940;BMP180;23057;48.554;14.454;2023-12-07T14:18:26;93868.00;;;8.50
41940;BMP180;23057;48.554;14.454;2023-12-07T14:20:57;93870.00;;;8.50
41940;BMP180;23057;48.554;14.454;2023-12-07T14:23:28;93866.00;;;8.50
41940;BMP180;23057;48.554;14.454;2023-12-07T14:25:59;93870.00;;;8.50
41940;BMP180;23057;48.554;14.454;2023-12-07T14:28:30;93878.00;;;8.50
41940;BMP180;23057;48.554;14.454;2023-12-07T14:31:04;93874.00;;;8.40
41940;BMP180;23057;48.554;14.454;2023-12-07T14:33:37;93881.00;;;8.40
41940;BMP180;23057;48.554;14.454;2023-12-07T14:36:10;93885.00;;;8.40
41940;BMP180;23057;48.554;14.454;2023-12-07T14:38:42;93886.00;;;8.50